Unalaska Airport

Airport
ICAO code: 
PADU
IATA Code: 
DUT
Summary
ICAO Region: 
NAM
Territory: 
Location: 
Unalaska Island,
Serving: 
Unalaska Island
Coordinates: 
Aerial View: 
53° 53' 56.148" N, 166° 32' 40.848" W
Airport BS: 
Bird Strike, Non Avian Wildlife Hazards to Aircraft
Airport WX: 
Fog
Metar
Observation
PADU 170304Z 13019G23KT 3SM BR SCT002 BKN007 OVC018 04/02 A2957 RMK AO2 OBS PK WND 13035/2125 PNO $
Station
Unalaska, Unalaska Airport
Date/Time
2022-01-17 03:04:00
Wind direction
130°
Wind speed
19 kts
Lowest cloud amount
scattered clouds
Temperature
4°C
Dew point
2°C
Humidity
86%
Weather condition
mist

Description

Regional airport serving Unalaska, Alaska which is located on Unalaska Island and neighboring Amaknak Island in the Aleutian Island chain.

Climatology

Subpolar oceanic climate(Köppen climate classification Cfc) - moderate and fairly uniform temperatures and heavy rainfall. Fog is often present even when it is not raining. Summer weather is around 5 °F (2.8 °C) cooler than Southeast Alaska (Sitka), but the winter temperatures are nearly the same.

Runways

Designator Length Width Surface Rops
12/30 1189 30 ASP Yes/Yes
Airport map: 
Aerial View: 

Accidents and Serious Incidents at or in the vicinity of PADU

SKYbrary Partners:

Safety knowledge contributed by: